Time;durP1;ratioP1;P1;durP2;ratioP2;P2;SDS_P1;SDS_P2;PMS_P1;PMS_P2;Temp;Humidity;BMP_temperature;BMP_pressure;BME280_temperature;BME280_humidity;BME280_pressure;Samples;Min_cycle;Max_cycle;Signal;HPM_P1;HPM_P2
2023/04/08 00:01:44;;;;;;;;;66.25;52.75;;;;;6.64;51.90;99468.66;5046418;28;8843;-79
2023/04/08 00:04:13;;;;;;;;;65.00;53.25;;;;;6.66;51.95;99464.28;5052576;28;8845;-77
2023/04/08 00:06:43;;;;;;;;;63.00;52.25;;;;;6.71;51.62;99465.13;5046417;28;8870;-75
2023/04/08 00:09:12;;;;;;;;;59.25;51.25;;;;;6.73;51.72;99457.28;5036990;28;8875;-77
2023/04/08 00:11:41;;;;;;;;;57.67;46.33;;;;;6.73;51.61;99462.53;5055274;28;8844;-75
2023/04/08 00:14:10;;;;;;;;;63.25;47.75;;;;;6.78;51.48;99456.38;5059459;28;8848;-76
2023/04/08 00:16:39;;;;;;;;;66.50;53.25;;;;;6.78;51.33;99465.97;5063631;28;9031;-77
2023/04/08 00:19:08;;;;;;;;;61.00;46.00;;;;;6.80;51.71;99454.63;5008119;28;8886;-77
2023/04/08 00:21:36;;;;;;;;;65.50;51.25;;;;;6.84;51.63;99471.16;5050161;28;8984;-79
2023/04/08 00:24:07;;;;;;;;;56.25;48.00;;;;;6.87;51.32;99466.78;5059273;28;8864;-77
2023/04/08 00:26:36;;;;;;;;;55.25;47.00;;;;;6.88;50.90;99472.84;5043763;28;8838;-77
2023/04/08 00:29:05;;;;;;;;;59.25;49.25;;;;;6.90;50.89;99472.00;5049685;28;8887;-76
2023/04/08 00:31:34;;;;;;;;;59.00;47.50;;;;;6.91;50.31;99470.28;5085344;28;8846;-76
2023/04/08 00:34:03;;;;;;;;;56.25;47.75;;;;;6.96;50.45;99473.69;5089308;28;8855;-77
2023/04/08 00:36:32;;;;;;;;;60.25;51.00;;;;;6.98;51.06;99476.31;5092787;28;8851;-77
2023/04/08 00:39:03;;;;;;;;;61.00;50.25;;;;;7.02;50.97;99475.41;5070316;28;8856;-77
2023/04/08 00:41:34;;;;;;;;;67.25;52.00;;;;;7.08;50.72;99471.00;5078558;28;8958;-77
2023/04/08 00:44:03;;;;;;;;;59.00;49.00;;;;;7.06;49.87;99477.09;5084754;28;9006;-77
2023/04/08 00:46:36;;;;;;;;;62.50;49.50;;;;;7.12;50.87;99466.63;5062830;28;8871;-77
2023/04/08 00:49:06;;;;;;;;;66.75;51.75;;;;;7.08;51.11;99470.16;5061812;28;8850;-77
2023/04/08 00:51:36;;;;;;;;;68.75;54.50;;;;;7.10;50.69;99460.53;5060718;28;8914;-77
2023/04/08 00:54:05;;;;;;;;;61.75;50.50;;;;;7.08;50.44;99465.78;5035065;28;8852;-76
2023/04/08 00:56:36;;;;;;;;;61.25;49.50;;;;;7.09;50.78;99466.63;5043774;28;8871;-76
2023/04/08 00:59:05;;;;;;;;;63.75;52.00;;;;;7.08;50.51;99459.69;5021475;28;8858;-76
2023/04/08 01:01:43;;;;;;;;;67.25;51.25;;;;;7.15;50.82;99466.56;5024407;28;8871;-77
2023/04/08 01:04:27;;;;;;;;;70.25;57.00;;;;;7.20;50.94;99453.47;5062116;28;8859;-76
2023/04/08 01:07:03;;;;;;;;;73.50;57.00;;;;;7.18;50.49;99455.25;5060088;28;8905;-75
2023/04/08 01:09:35;;;;;;;;;67.50;53.75;;;;;7.12;49.40;99445.72;5043771;28;8889;-76
2023/04/08 01:12:09;;;;;;;;;69.00;56.25;;;;;7.21;49.72;99444.75;5033297;28;8875;-78
2023/04/08 01:14:42;;;;;;;;;70.25;55.00;;;;;7.16;49.31;99457.00;5011106;28;8893;-75
2023/04/08 01:17:11;;;;;;;;;68.50;55.00;;;;;7.05;49.42;99451.88;5062670;28;8860;-77
2023/04/08 01:19:43;;;;;;;;;65.00;52.75;;;;;7.00;49.15;99451.91;5039092;28;8869;-76
2023/04/08 01:22:19;;;;;;;;;61.25;51.00;;;;;7.04;49.03;99453.63;5030598;28;8947;-77
2023/04/08 01:24:52;;;;;;;;;62.25;51.75;;;;;6.98;48.69;99456.25;5042305;28;8934;-77
2023/04/08 01:27:22;;;;;;;;;67.75;55.00;;;;;6.97;49.67;99461.53;5072887;28;8860;-77
2023/04/08 01:29:53;;;;;;;;;76.00;61.00;;;;;6.94;50.93;99457.16;5085467;28;9003;-76
2023/04/08 01:32:22;;;;;;;;;72.50;57.50;;;;;6.94;50.49;99456.31;5059488;28;8872;-76
2023/04/08 01:34:52;;;;;;;;;77.50;61.25;;;;;6.95;50.57;99452.81;5012450;28;8842;-76
2023/04/08 01:37:23;;;;;;;;;67.00;54.75;;;;;7.00;50.95;99451.91;5069115;28;8866;-77
2023/04/08 01:39:56;;;;;;;;;65.75;53.25;;;;;6.91;50.50;99454.59;5075299;28;8856;-76
2023/04/08 01:42:28;;;;;;;;;67.50;55.50;;;;;6.57;50.17;99451.28;5090804;28;8905;-75
2023/04/08 01:44:59;;;;;;;;;63.75;53.50;;;;;6.44;51.32;99453.97;5071179;28;8841;-76
2023/04/08 01:47:29;;;;;;;;;69.25;56.50;;;;;6.35;50.67;99454.03;5086233;28;8861;-75
2023/04/08 01:49:59;;;;;;;;;68.00;55.25;;;;;6.35;50.96;99456.63;5069625;28;8853;-76
2023/04/08 01:52:30;;;;;;;;;68.75;57.50;;;;;6.28;50.79;99461.00;5085923;28;8892;-76
2023/04/08 01:54:59;;;;;;;;;70.75;57.75;;;;;6.38;50.64;99458.34;5084112;28;8922;-77
2023/04/08 01:57:33;;;;;;;;;75.75;59.00;;;;;6.28;50.94;99460.16;5038994;28;8851;-78
2023/04/08 02:00:07;;;;;;;;;77.25;62.50;;;;;5.93;53.01;99459.44;5065468;28;8928;-76
2023/04/08 02:02:50;;;;;;;;;75.50;61.25;;;;;5.63;54.12;99454.31;5003935;28;8856;-76
2023/04/08 02:05:20;;;;;;;;;76.25;61.50;;;;;5.09;56.15;99463.03;5048967;28;8813;-76
2023/04/08 02:07:49;;;;;;;;;78.75;63.00;;;;;4.84;56.97;99464.72;5063191;28;8895;-76
2023/04/08 02:10:17;;;;;;;;;80.00;63.75;;;;;4.73;56.58;99463.84;5048186;28;8851;-75
2023/04/08 02:12:48;;;;;;;;;70.75;57.00;;;;;4.85;56.54;99473.41;5032638;28;8828;-77
2023/04/08 02:15:17;;;;;;;;;69.75;56.75;;;;;5.12;55.15;99468.22;5048766;28;8820;-75
2023/04/08 02:17:49;;;;;;;;;68.75;54.00;;;;;5.45;55.06;99453.47;5051833;28;8884;-75
2023/04/08 02:20:23;;;;;;;;;75.25;61.25;;;;;5.72;55.18;99464.72;5082139;28;9631;-76
2023/04/08 02:22:59;;;;;;;;;71.25;57.50;;;;;6.02;54.52;99447.22;5028212;28;9829;-78
2023/04/08 02:25:30;;;;;;;;;82.50;64.00;;;;;6.16;54.28;99452.38;5088265;28;8854;-77
2023/04/08 02:28:04;;;;;;;;;62.50;48.00;;;;;6.38;53.31;99455.75;5096786;28;8878;-77
2023/04/08 02:30:35;;;;;;;;;36.50;35.25;;;;;6.46;52.67;99457.44;5079873;28;8848;-76
2023/04/08 02:33:05;;;;;;;;;77.50;62.00;;;;;6.54;52.99;99451.31;5087312;28;8987;-76
2023/04/08 02:35:34;;;;;;;;;82.50;63.00;;;;;6.63;52.67;99452.13;5086701;28;8836;-78
2023/04/08 02:38:03;;;;;;;;;76.00;59.25;;;;;6.74;52.00;99445.94;5087899;28;9101;-77
2023/04/08 02:40:34;;;;;;;;;77.75;61.00;;;;;6.73;51.65;99450.31;5087576;28;8839;-75
2023/04/08 02:43:06;;;;;;;;;78.75;61.50;;;;;6.81;51.26;99447.66;5086317;28;9657;-76
2023/04/08 02:45:39;;;;;;;;;70.75;59.25;;;;;6.83;50.93;99449.41;5077055;28;8939;-76
2023/04/08 02:48:09;;;;;;;;;75.00;61.50;;;;;6.75;50.81;99455.53;5063983;28;8832;-77
2023/04/08 02:50:39;;;;;;;;;74.75;60.75;;;;;6.73;50.80;99446.84;5088951;28;8870;-75
2023/04/08 02:53:09;;;;;;;;;77.50;59.50;;;;;6.69;51.05;99457.31;5083190;28;8859;-76
2023/04/08 02:55:39;;;;;;;;;69.75;58.25;;;;;6.70;51.81;99452.94;5092806;28;8974;-76
2023/04/08 02:58:09;;;;;;;;;71.00;59.50;;;;;6.83;51.75;99449.41;5087219;28;8860;-77
2023/04/08 03:00:38;;;;;;;;;74.00;60.50;;;;;6.86;51.99;99454.56;5086370;28;9757;-75
2023/04/08 03:03:07;;;;;;;;;70.50;59.25;;;;;6.92;51.55;99456.31;5085108;28;8890;-78
2023/04/08 03:05:36;;;;;;;;;76.50;60.00;;;;;6.97;50.93;99456.28;5057239;28;8882;-76
2023/04/08 03:08:05;;;;;;;;;71.00;55.75;;;;;7.00;51.53;99445.78;5086812;28;8871;-76
2023/04/08 03:10:34;;;;;;;;;75.00;60.25;;;;;7.05;50.60;99455.34;5055178;28;8936;-77
2023/04/08 03:13:03;;;;;;;;;76.00;60.75;;;;;6.93;51.05;99452.84;5083059;28;8858;-76
2023/04/08 03:15:33;;;;;;;;;76.50;60.75;;;;;6.98;51.53;99458.88;5022067;28;8877;-77
2023/04/08 03:18:02;;;;;;;;;69.00;58.00;;;;;6.96;50.89;99457.16;5085418;28;8863;-76
2023/04/08 03:20:31;;;;;;;;;76.00;62.00;;;;;7.01;51.13;99455.38;5067026;28;8865;-77
2023/04/08 03:22:59;;;;;;;;;77.25;61.25;;;;;6.56;50.68;99465.25;5080901;28;8956;-77
2023/04/08 03:25:29;;;;;;;;;73.75;59.00;;;;;5.90;52.92;99461.16;5051634;28;8906;-76
2023/04/08 03:27:58;;;;;;;;;74.75;61.75;;;;;5.44;54.96;99469.13;5081548;28;9693;-78
2023/04/08 03:30:27;;;;;;;;;77.00;61.25;;;;;5.43;54.85;99465.63;5078345;28;8945;-78
2023/04/08 03:32:57;;;;;;;;;75.25;59.50;;;;;4.93;56.29;99476.91;5074478;28;8840;-78
2023/04/08 03:35:27;;;;;;;;;81.25;62.25;;;;;4.58;57.77;99480.31;5067506;28;8916;-76
2023/04/08 03:37:55;;;;;;;;;76.50;59.00;;;;;5.05;55.83;99476.91;5070580;28;8862;-77
2023/04/08 03:40:26;;;;;;;;;83.75;63.75;;;;;5.31;55.23;99482.16;5080789;28;8848;-77
2023/04/08 03:42:54;;;;;;;;;87.67;69.00;;;;;5.47;54.82;99471.69;5073764;28;8881;-77
2023/04/08 03:45:24;;;;;;;;;83.33;68.33;;;;;5.50;55.11;99472.56;5073202;28;8952;-77
2023/04/08 03:47:52;;;;;;;;;89.00;67.67;;;;;5.77;55.09;99480.34;5041439;28;9122;-77
2023/04/08 03:50:23;;;;;;;;;77.25;61.25;;;;;5.83;53.65;99482.94;5099978;27;9066;-77
2023/04/08 03:52:52;;;;;;;;;127.00;115.25;;;;;5.95;53.24;99487.28;5071550;28;8876;-76
2023/04/08 03:55:21;;;;;;;;;99.50;79.00;;;;;6.04;53.39;99488.09;5075175;28;11282;-76
2023/04/08 03:57:49;;;;;;;;;128.25;113.75;;;;;6.09;53.23;99490.69;5068214;28;9891;-76
2023/04/08 04:00:18;;;;;;;;;75.25;60.00;;;;;5.87;52.61;99493.38;5077811;28;10854;-78
2023/04/08 04:02:47;;;;;;;;;82.75;65.00;;;;;5.66;53.47;99498.59;5085412;28;8859;-76
2023/04/08 04:05:16;;;;;;;;;72.75;58.25;;;;;5.86;52.58;99496.84;5074591;28;8842;-76
2023/04/08 04:07:46;;;;;;;;;71.25;56.75;;;;;6.08;53.01;99507.22;5070300;28;8882;-76
2023/04/08 04:10:15;;;;;;;;;75.00;60.25;;;;;6.25;52.43;99500.19;5084529;28;8887;-77
2023/04/08 04:12:44;;;;;;;;;56.00;48.50;;;;;6.40;51.26;99498.38;5085221;28;8860;-77
2023/04/08 04:15:13;;;;;;;;;92.33;71.67;;;;;6.50;51.86;99498.34;5056923;28;8877;-76
2023/04/08 04:17:42;;;;;;;;;80.75;63.25;;;;;6.62;51.24;99497.41;5084681;28;9330;-78
2023/04/08 04:20:12;;;;;;;;;76.75;61.75;;;;;6.72;51.72;99495.63;5074335;28;8844;-76
2023/04/08 04:22:40;;;;;;;;;80.00;64.75;;;;;6.78;50.57;99495.56;5066333;28;8869;-77
2023/04/08 04:25:11;;;;;;;;;80.75;63.50;;;;;6.86;50.37;99496.38;5073197;28;8900;-75
2023/04/08 04:27:39;;;;;;;;;71.75;57.50;;;;;6.89;50.71;99503.34;5083492;28;8846;-77
2023/04/08 04:30:09;;;;;;;;;72.75;58.75;;;;;6.98;50.45;99505.06;5049311;28;8874;-77
2023/04/08 04:32:38;;;;;;;;;67.00;54.25;;;;;7.03;50.35;99508.50;5032808;28;8849;-76
2023/04/08 04:35:07;;;;;;;;;66.75;54.00;;;;;7.04;49.71;99521.56;5070716;28;8834;-76
2023/04/08 04:37:36;;;;;;;;;62.75;52.75;;;;;7.05;49.70;99510.22;5033405;28;8834;-77
2023/04/08 04:40:06;;;;;;;;;67.00;54.00;;;;;7.04;48.96;99516.34;5078773;28;8892;-76
2023/04/08 04:42:36;;;;;;;;;66.50;54.50;;;;;7.12;49.71;99518.00;5070344;28;8856;-77
2023/04/08 04:45:06;;;;;;;;;66.50;54.25;;;;;7.08;49.48;99520.66;5068629;28;8860;-76
2023/04/08 04:47:35;;;;;;;;;69.50;55.50;;;;;7.08;48.98;99522.41;5057161;28;8868;-76
2023/04/08 04:50:05;;;;;;;;;68.25;55.75;;;;;7.11;48.41;99527.59;5066112;28;8866;-75
2023/04/08 04:52:36;;;;;;;;;73.75;58.25;;;;;7.22;48.83;99528.41;5049501;28;8862;-76
2023/04/08 04:55:05;;;;;;;;;66.75;54.75;;;;;7.20;49.41;99530.16;5086018;28;8851;-76
2023/04/08 04:57:35;;;;;;;;;65.75;53.75;;;;;7.24;48.95;99533.63;5042707;28;9429;-77
2023/04/08 05:00:05;;;;;;;;;64.00;53.25;;;;;7.21;48.92;99531.91;5042008;28;8872;-77
2023/04/08 05:02:34;;;;;;;;;67.25;53.75;;;;;7.29;48.51;99532.72;5084151;28;9682;-76
2023/04/08 05:05:03;;;;;;;;;69.50;55.50;;;;;7.27;48.90;99534.47;5087555;28;8855;-76
2023/04/08 05:07:32;;;;;;;;;66.25;55.50;;;;;7.18;48.58;99533.66;5079952;28;8858;-77
2023/04/08 05:10:01;;;;;;;;;65.75;51.00;;;;;7.19;48.50;99533.66;5083498;28;8850;-75
2023/04/08 05:12:29;;;;;;;;;64.75;54.50;;;;;7.26;48.49;99540.56;5083034;28;8898;-76
2023/04/08 05:15:01;;;;;;;;;72.25;57.25;;;;;7.31;48.43;99534.47;5087930;28;8827;-76
2023/04/08 05:17:29;;;;;;;;;70.75;57.25;;;;;7.25;48.62;99538.00;5089511;28;8868;-77
2023/04/08 05:19:58;;;;;;;;;67.75;55.50;;;;;7.24;47.43;99534.47;5086082;28;8968;-76
2023/04/08 05:22:27;;;;;;;;;67.00;54.25;;;;;7.22;48.09;99535.38;5094140;28;8840;-75
2023/04/08 05:24:56;;;;;;;;;74.25;58.25;;;;;7.27;48.38;99537.09;5086129;28;8880;-75
2023/04/08 05:27:25;;;;;;;;;75.50;59.50;;;;;7.36;47.76;99543.09;5084700;28;8851;-75
2023/04/08 05:29:53;;;;;;;;;71.00;59.25;;;;;7.44;48.54;99544.78;5088840;28;8859;-76
2023/04/08 05:32:23;;;;;;;;;71.25;54.25;;;;;7.42;47.69;99536.09;5070223;28;8953;-75
2023/04/08 05:34:52;;;;;;;;;61.25;46.50;;;;;7.48;47.84;99548.25;5034220;28;8842;-74
2023/04/08 05:37:21;;;;;;;;;70.00;55.75;;;;;7.53;48.25;99540.34;5069769;28;8839;-76
2023/04/08 05:39:50;;;;;;;;;69.75;56.25;;;;;7.46;46.52;99543.03;5069719;28;8854;-77
2023/04/08 05:42:19;;;;;;;;;73.75;57.75;;;;;7.51;47.84;99542.13;5084627;28;8839;-76
2023/04/08 05:44:48;;;;;;;;;73.50;58.75;;;;;7.58;47.50;99539.44;5089894;28;8856;-75
2023/04/08 05:47:16;;;;;;;;;66.25;52.75;;;;;7.61;47.18;99544.66;5088632;28;8848;-75
2023/04/08 05:49:46;;;;;;;;;65.75;55.50;;;;;7.63;47.86;99553.34;5076503;28;8874;-75
2023/04/08 05:52:18;;;;;;;;;71.00;55.75;;;;;7.64;47.56;99551.59;5081324;28;8858;-77
2023/04/08 05:54:47;;;;;;;;;70.50;56.50;;;;;7.74;46.77;99550.66;5083889;28;8890;-74
2023/04/08 05:57:16;;;;;;;;;71.25;55.25;;;;;7.77;46.81;99550.59;5073739;28;8936;-75
2023/04/08 05:59:45;;;;;;;;;72.25;56.75;;;;;7.85;47.05;99547.91;5081763;28;8859;-76
2023/04/08 06:02:14;;;;;;;;;78.25;59.75;;;;;7.87;47.49;99556.59;5087843;28;8856;-76
2023/04/08 06:04:43;;;;;;;;;66.25;55.50;;;;;7.99;47.24;99553.88;5072333;28;8864;-75
2023/04/08 06:07:13;;;;;;;;;69.25;57.50;;;;;8.10;46.46;99552.88;5086837;28;8875;-75
2023/04/08 06:09:42;;;;;;;;;67.75;55.75;;;;;8.06;45.96;99552.94;5089187;28;8863;-76
2023/04/08 06:12:12;;;;;;;;;70.50;58.00;;;;;8.09;45.82;99545.94;5088500;28;8863;-77
2023/04/08 06:14:41;;;;;;;;;70.50;55.25;;;;;8.09;46.18;99556.41;5070252;28;8867;-76
2023/04/08 06:17:10;;;;;;;;;71.75;57.00;;;;;8.17;45.57;99550.19;5087873;28;8961;-78
2023/04/08 06:19:39;;;;;;;;;75.75;60.00;;;;;8.12;46.46;99543.25;5020280;28;8867;-78
2023/04/08 06:22:08;;;;;;;;;70.50;56.75;;;;;8.25;46.68;99553.59;5052674;28;8886;-74
2023/04/08 06:24:39;;;;;;;;;67.75;54.75;;;;;8.25;46.32;99548.38;5069733;28;8879;-77
2023/04/08 06:27:08;;;;;;;;;76.00;58.50;;;;;8.31;45.78;99546.56;5087791;28;8857;-76
2023/04/08 06:29:37;;;;;;;;;68.25;56.50;;;;;8.26;46.02;99550.09;5078681;28;8844;-74
2023/04/08 06:32:07;;;;;;;;;78.25;60.50;;;;;8.30;45.70;99550.06;5087269;28;8856;-74
2023/04/08 06:34:36;;;;;;;;;76.00;59.25;;;;;8.43;45.05;99554.31;5075062;28;8874;-75
2023/04/08 06:37:06;;;;;;;;;68.75;55.50;;;;;8.50;45.07;99558.59;5074824;28;8866;-74
2023/04/08 06:39:35;;;;;;;;;75.00;59.00;;;;;8.56;44.68;99561.13;5074652;28;8851;-76
2023/04/08 06:42:05;;;;;;;;;72.50;59.25;;;;;8.64;44.70;99554.03;5076902;28;8851;-77
2023/04/08 06:44:44;;;;;;;;;73.75;59.00;;;;;8.66;45.15;99561.88;5084076;28;8851;-75
2023/04/08 06:47:13;;;;;;;;;74.25;57.75;;;;;8.73;45.04;99558.28;5084122;28;8871;-76
2023/04/08 06:49:42;;;;;;;;;73.50;58.25;;;;;8.92;44.86;99558.03;5089547;28;8870;-77
2023/04/08 06:52:11;;;;;;;;;73.00;57.75;;;;;8.92;44.61;99560.66;5099178;28;8890;-76
2023/04/08 06:54:42;;;;;;;;;69.75;55.50;;;;;8.76;44.98;99573.09;5064894;28;8865;-79
2023/04/08 06:57:12;;;;;;;;;70.75;56.75;;;;;8.62;44.29;99568.03;5048881;28;8853;-78
2023/04/08 06:59:41;;;;;;;;;74.50;60.00;;;;;8.77;43.99;99566.97;5070493;28;8861;-80
2023/04/08 07:02:10;;;;;;;;;66.25;54.25;;;;;8.62;43.71;99568.03;4986642;28;8837;-82
2023/04/08 07:04:39;;;;;;;;;68.25;56.25;;;;;8.67;43.99;99574.09;5057140;28;8868;-80
2023/04/08 07:07:08;;;;;;;;;70.25;56.25;;;;;8.36;43.04;99573.59;5048515;28;8927;-79
2023/04/08 07:09:37;;;;;;;;;64.25;54.00;;;;;7.81;44.06;99586.31;5049559;28;9381;-78
2023/04/08 07:12:06;;;;;;;;;70.25;57.00;;;;;8.08;45.30;99581.72;5048815;28;8850;-79
2023/04/08 07:14:36;;;;;;;;;71.75;58.75;;;;;8.21;45.40;99580.72;5064909;28;8814;-78
2023/04/08 07:17:05;;;;;;;;;67.25;56.50;;;;;8.49;45.13;99582.19;5057263;28;8972;-80
2023/04/08 07:19:34;;;;;;;;;66.25;52.25;;;;;8.73;45.01;99574.00;5067715;28;8853;-80
2023/04/08 07:22:03;;;;;;;;;68.00;55.00;;;;;8.64;43.17;99574.13;5064965;28;8898;-78
2023/04/08 07:24:33;;;;;;;;;72.75;58.25;;;;;8.41;44.06;99583.13;5031993;28;8849;-78
2023/04/08 07:27:01;;;;;;;;;72.75;58.50;;;;;8.68;43.80;99580.19;5048256;28;9643;-80
2023/04/08 07:29:31;;;;;;;;;68.75;56.75;;;;;8.63;43.17;99578.50;5034022;28;8949;-78
2023/04/08 07:32:01;;;;;;;;;71.25;56.25;;;;;8.47;43.69;99589.19;5039445;28;8890;-80
2023/04/08 07:34:30;;;;;;;;;70.25;56.50;;;;;8.41;44.61;99590.13;5035566;28;8867;-79
2023/04/08 07:36:59;;;;;;;;;64.00;53.00;;;;;8.67;44.12;99596.78;5094899;28;8872;-79
2023/04/08 07:39:28;;;;;;;;;63.50;52.50;;;;;8.96;43.88;99593.81;5065910;28;8873;-77
2023/04/08 07:41:56;;;;;;;;;70.25;56.00;;;;;9.29;43.55;99597.72;5074291;28;8910;-79
2023/04/08 07:44:25;;;;;;;;;72.00;57.50;;;;;9.07;42.99;99596.28;5084337;28;8871;-81
2023/04/08 07:46:54;;;;;;;;;72.75;58.25;;;;;9.40;43.26;99595.81;5099493;28;8936;-82
2023/04/08 07:49:24;;;;;;;;;71.75;58.25;;;;;9.57;42.94;99590.31;5101614;28;8828;-82
2023/04/08 07:51:53;;;;;;;;;73.50;59.00;;;;;9.85;42.87;99600.34;5044965;28;8971;-80
2023/04/08 07:54:22;;;;;;;;;77.50;60.00;;;;;10.05;42.45;99604.38;5061419;28;9752;-78
2023/04/08 07:56:51;;;;;;;;;73.75;58.00;;;;;10.05;43.29;99600.00;5082127;28;9652;-79
2023/04/08 07:59:20;;;;;;;;;75.50;61.50;;;;;10.08;43.86;99596.44;5061732;28;9613;-78
2023/04/08 08:01:48;;;;;;;;;75.75;59.00;;;;;10.39;43.15;99594.97;5040452;28;8904;-76
2023/04/08 08:04:17;;;;;;;;;77.25;59.25;;;;;10.51;41.65;99598.25;5076008;28;8855;-78
2023/04/08 08:06:48;;;;;;;;;77.25;62.00;;;;;10.54;41.63;99599.06;5066355;28;8893;-77
2023/04/08 08:09:17;;;;;;;;;74.00;59.00;;;;;10.63;41.53;99600.63;5076887;28;8860;-79
2023/04/08 08:11:46;;;;;;;;;71.25;58.25;;;;;10.90;40.68;99601.88;5067033;28;8892;-77
2023/04/08 08:14:15;;;;;;;;;60.50;51.75;;;;;10.99;40.79;99603.41;5066910;28;8854;-78
2023/04/08 08:16:44;;;;;;;;;76.00;59.75;;;;;11.14;41.43;99602.22;5066660;28;10044;-79
2023/04/08 08:19:13;;;;;;;;;71.75;58.25;;;;;11.29;40.26;99599.22;5066872;28;8854;-80
2023/04/08 08:21:42;;;;;;;;;75.75;59.75;;;;;11.31;40.35;99607.09;5048460;28;8851;-78
2023/04/08 08:24:12;;;;;;;;;73.67;58.67;;;;;11.46;38.83;99601.47;5017488;28;8874;-78
2023/04/08 08:26:41;;;;;;;;;68.25;54.00;;;;;11.43;39.28;99598.06;5065152;28;8880;-78
2023/04/08 08:29:10;;;;;;;;;71.50;57.75;;;;;11.41;38.42;99605.13;5066931;28;8866;-77
2023/04/08 08:31:38;;;;;;;;;71.00;56.00;;;;;11.54;39.04;99604.81;5067197;28;8862;-78
2023/04/08 08:34:07;;;;;;;;;76.50;60.75;;;;;11.60;38.15;99602.91;5069402;28;8901;-78
2023/04/08 08:36:36;;;;;;;;;79.25;62.75;;;;;11.76;39.48;99604.28;5082170;28;8890;-79
2023/04/08 08:39:05;;;;;;;;;76.50;59.00;;;;;11.73;38.49;99607.84;5031740;28;8916;-78
2023/04/08 08:41:36;;;;;;;;;74.00;59.00;;;;;11.80;38.82;99605.06;5082310;28;8871;-80
2023/04/08 08:44:06;;;;;;;;;71.75;56.25;;;;;11.80;37.85;99605.06;5089413;28;9580;-76
2023/04/08 08:46:36;;;;;;;;;70.75;57.25;;;;;12.01;38.21;99615.06;5073013;28;8932;-76
2023/04/08 08:49:06;;;;;;;;;75.25;60.75;;;;;11.97;36.98;99607.31;5091024;28;8856;-77
2023/04/08 08:51:34;;;;;;;;;67.50;54.25;;;;;12.11;38.72;99611.31;5103442;28;8868;-78
2023/04/08 08:54:04;;;;;;;;;72.25;56.25;;;;;12.16;37.59;99605.91;5086264;28;8862;-78
2023/04/08 08:56:33;;;;;;;;;71.50;56.00;;;;;10.44;38.57;99609.78;5061618;28;8853;-79
2023/04/08 08:59:04;;;;;;;;;66.50;53.25;;;;;10.43;37.76;99610.69;5069251;28;9580;-79
2023/04/08 09:01:36;;;;;;;;;72.00;56.25;;;;;9.32;40.38;99618.63;5056914;28;8876;-77
2023/04/08 09:04:15;;;;;;;;;75.25;58.75;;;;;9.45;41.38;99614.09;5123631;27;8839;-79
2023/04/08 09:06:46;;;;;;;;;66.75;54.75;;;;;9.16;41.07;99618.00;5090789;28;8998;-78
2023/04/08 09:09:15;;;;;;;;;67.25;54.00;;;;;9.72;40.43;99614.56;5123358;27;8956;-79
2023/04/08 09:11:46;;;;;;;;;75.50;60.50;;;;;9.72;40.34;99619.81;5054548;28;8886;-78
2023/04/08 09:14:22;;;;;;;;;64.00;51.75;;;;;10.22;41.39;99620.72;5068870;28;8865;-77
2023/04/08 09:16:51;;;;;;;;;64.00;52.50;;;;;10.24;40.56;99615.44;5069030;28;8981;-79
2023/04/08 09:19:20;;;;;;;;;68.00;54.00;;;;;10.59;41.13;99612.09;5082588;28;8852;-80
2023/04/08 09:22:05;;;;;;;;;67.50;54.50;;;;;11.07;40.86;99619.94;5071270;28;8850;-79
2023/04/08 09:24:35;;;;;;;;;70.25;58.25;;;;;11.20;39.69;99617.88;5088189;28;8865;-78
2023/04/08 09:27:05;;;;;;;;;76.25;60.00;;;;;11.27;39.42;99619.47;5071422;28;8930;-78
2023/04/08 09:29:36;;;;;;;;;77.75;61.50;;;;;11.29;39.82;99627.31;5055459;28;8930;-81
2023/04/08 09:32:07;;;;;;;;;69.25;55.25;;;;;11.00;38.36;99627.97;5050621;28;8845;-77
2023/04/08 09:34:36;;;;;;;;;68.50;55.75;;;;;10.81;38.76;99625.72;5034285;28;8857;-78
2023/04/08 09:37:05;;;;;;;;;70.00;55.00;;;;;10.93;38.97;99624.59;5069119;28;8838;-77
2023/04/08 09:39:35;;;;;;;;;67.00;52.33;;;;;9.65;39.91;99633.94;5054702;28;8850;-77
2023/04/08 09:42:08;;;;;;;;;72.50;59.00;;;;;8.63;42.43;99641.41;5070542;28;8845;-77
2023/04/08 09:44:41;;;;;;;;;72.00;57.25;;;;;9.02;43.31;99633.91;5070292;28;8849;-79
2023/04/08 09:47:18;;;;;;;;;71.50;58.25;;;;;8.86;42.11;99642.03;5065387;28;8841;-77
2023/04/08 09:49:55;;;;;;;;;67.50;54.50;;;;;8.06;43.80;99644.56;5066461;28;8855;-77
2023/04/08 09:52:30;;;;;;;;;71.50;56.00;;;;;8.22;45.17;99647.03;5079507;28;8857;-81
2023/04/08 09:55:03;;;;;;;;;72.50;58.25;;;;;9.16;43.29;99641.63;5071594;28;8842;-76
2023/04/08 09:57:40;;;;;;;;;63.00;51.25;;;;;9.15;41.80;99641.63;5086365;28;8882;-74
2023/04/08 10:00:13;;;;;;;;;62.25;51.75;;;;;9.24;42.23;99634.50;5103817;28;9000;-80
2023/04/08 10:02:55;;;;;;;;;58.50;49.75;;;;;9.87;41.53;99631.81;5102613;28;8950;-78
2023/04/08 10:05:25;;;;;;;;;62.00;50.75;;;;;8.52;42.37;99635.41;5057349;28;8868;-76
2023/04/08 10:07:56;;;;;;;;;68.50;54.00;;;;;8.14;43.43;99648.88;5042613;28;8910;-78
2023/04/08 10:10:26;;;;;;;;;66.50;53.75;;;;;9.02;42.88;99635.66;5043237;28;8845;-79
2023/04/08 10:12:55;;;;;;;;;67.75;54.50;;;;;9.21;41.44;99638.91;5026418;28;8852;-77
2023/04/08 10:15:28;;;;;;;;;65.00;53.25;;;;;9.30;41.18;99635.31;5026229;28;8881;-79
2023/04/08 10:18:33;;;;;;;;;59.75;50.25;;;;;9.35;41.12;99633.50;5010319;28;8883;-77
2023/04/08 10:21:02;;;;;;;;;66.25;54.00;;;;;9.38;41.55;99639.53;5009086;28;9056;-77
2023/04/08 10:23:58;;;;;;;;;65.25;52.00;;;;;8.94;41.72;99635.78;5010017;28;8872;-76
2023/04/08 10:26:32;;;;;;;;;60.00;50.25;;;;;9.22;42.47;99640.66;5029649;28;8861;-77
2023/04/08 10:29:32;;;;;;;;;62.00;50.75;;;;;9.76;40.98;99625.00;5046056;28;8878;-79
2023/04/08 10:32:03;;;;;;;;;61.50;50.75;;;;;9.93;39.86;99640.50;5042928;28;8873;-77
2023/04/08 10:34:32;;;;;;;;;65.50;53.00;;;;;9.92;40.15;99635.25;4996218;28;8917;-77
2023/04/08 10:37:02;;;;;;;;;62.25;51.75;;;;;9.76;40.00;99639.88;4989749;28;8853;-76
2023/04/08 10:39:31;;;;;;;;;68.00;54.50;;;;;9.30;41.00;99637.94;4986137;28;8865;-78
2023/04/08 10:42:02;;;;;;;;;66.25;53.00;;;;;9.68;40.91;99637.38;4977334;28;9009;-78
2023/04/08 10:44:31;;;;;;;;;68.75;55.75;;;;;10.09;40.44;99642.84;4973763;28;9037;-78
2023/04/08 10:47:00;;;;;;;;;60.00;50.75;;;;;9.85;40.19;99638.88;5028230;28;9678;-78
2023/04/08 10:49:35;;;;;;;;;67.25;50.75;;;;;9.23;40.45;99645.00;5044555;28;8989;-77
2023/04/08 10:52:07;;;;;;;;;67.25;53.75;;;;;8.92;41.41;99642.78;4984155;28;9055;-78
2023/04/08 10:54:38;;;;;;;;;64.50;50.75;;;;;9.68;40.97;99639.13;5044479;28;8850;-80
2023/04/08 10:57:07;;;;;;;;;67.50;55.25;;;;;9.73;40.24;99642.56;5045103;28;9584;-78
2023/04/08 10:59:38;;;;;;;;;68.75;55.50;;;;;8.99;41.56;99647.06;5024785;28;8886;-79
2023/04/08 11:02:13;;;;;;;;;73.00;59.50;;;;;8.99;42.04;99648.84;5034003;28;9623;-79
2023/04/08 11:04:46;;;;;;;;;73.75;57.75;;;;;9.64;41.51;99640.94;5011192;28;8963;-79
2023/04/08 11:07:16;;;;;;;;;75.50;57.00;;;;;10.04;40.60;99644.69;5027115;28;8896;-79
2023/04/08 11:09:44;;;;;;;;;67.50;54.50;;;;;9.96;40.68;99644.81;5032081;28;8842;-80
2023/04/08 11:12:17;;;;;;;;;72.00;56.50;;;;;9.97;40.32;99643.91;5037015;28;8906;-79
2023/04/08 11:14:47;;;;;;;;;68.50;55.75;;;;;9.18;41.19;99654.72;5049431;28;8880;-78
2023/04/08 11:17:17;;;;;;;;;69.75;56.00;;;;;9.38;41.24;99649.16;5080767;28;8874;-79
2023/04/08 11:19:47;;;;;;;;;63.00;51.50;;;;;9.85;40.99;99642.34;5040152;28;8868;-80
2023/04/08 11:22:17;;;;;;;;;60.25;49.75;;;;;9.32;40.95;99654.50;5024975;28;8868;-78
2023/04/08 11:24:46;;;;;;;;;71.75;58.25;;;;;8.81;42.37;99655.16;5024383;28;8856;-80
2023/04/08 11:27:16;;;;;;;;;70.75;57.00;;;;;8.97;42.62;99651.47;5008968;28;8938;-80
2023/04/08 11:29:45;;;;;;;;;71.50;56.75;;;;;9.56;41.66;99651.53;4975425;28;8876;-79
2023/04/08 11:32:15;;;;;;;;;71.00;56.25;;;;;9.82;42.07;99643.28;5024847;28;8871;-77
2023/04/08 11:34:43;;;;;;;;;67.75;54.25;;;;;9.97;40.80;99644.78;5024149;28;8949;-78
2023/04/08 11:37:14;;;;;;;;;65.00;52.50;;;;;10.25;40.59;99640.81;5008294;28;8871;-77
2023/04/08 11:39:43;;;;;;;;;72.00;56.75;;;;;9.97;40.33;99636.91;5016823;28;8885;-79
2023/04/08 11:42:26;;;;;;;;;69.25;56.25;;;;;10.37;40.15;99638.81;5045420;28;8838;-78
2023/04/08 11:44:55;;;;;;;;;63.25;51.50;;;;;9.69;39.78;99640.84;5044794;28;8838;-78
2023/04/08 11:47:32;;;;;;;;;63.50;52.50;;;;;8.70;42.57;99642.19;5044745;28;8869;-80